sensor_id;sensor_type;location;lat;lon;timestamp;P1;durP1;ratioP1;P2;durP2;ratioP2
19671;SDS011;9983;51.114;13.788;2022-08-11T00:01:53;3.55;;;3.28;;
19671;SDS011;9983;51.114;13.788;2022-08-11T00:06:54;4.25;;;3.58;;
19671;SDS011;9983;51.114;13.788;2022-08-11T00:11:55;5.18;;;3.60;;
19671;SDS011;9983;51.114;13.788;2022-08-11T00:16:58;4.60;;;3.72;;
19671;SDS011;9983;51.114;13.788;2022-08-11T00:22:00;4.10;;;3.70;;
19671;SDS011;9983;51.114;13.788;2022-08-11T00:27:02;3.97;;;3.65;;
19671;SDS011;9983;51.114;13.788;2022-08-11T00:32:04;3.58;;;3.28;;
19671;SDS011;9983;51.114;13.788;2022-08-11T00:37:16;3.92;;;3.53;;
19671;SDS011;9983;51.114;13.788;2022-08-11T00:47:53;4.10;;;3.80;;
19671;SDS011;9983;51.114;13.788;2022-08-11T01:15:13;4.63;;;3.47;;
19671;SDS011;9983;51.114;13.788;2022-08-11T01:25:53;4.18;;;3.70;;
19671;SDS011;9983;51.114;13.788;2022-08-11T01:31:35;4.97;;;3.92;;
19671;SDS011;9983;51.114;13.788;2022-08-11T01:42:19;4.13;;;3.83;;
19671;SDS011;9983;51.114;13.788;2022-08-11T01:53:30;3.67;;;3.38;;
19671;SDS011;9983;51.114;13.788;2022-08-11T01:58:48;4.38;;;3.97;;
19671;SDS011;9983;51.114;13.788;2022-08-11T02:04:15;4.78;;;4.38;;
19671;SDS011;9983;51.114;13.788;2022-08-11T02:09:48;4.13;;;3.83;;
19671;SDS011;9983;51.114;13.788;2022-08-11T02:15:06;5.45;;;4.00;;
19671;SDS011;9983;51.114;13.788;2022-08-11T02:20:44;3.80;;;3.60;;
19671;SDS011;9983;51.114;13.788;2022-08-11T02:26:17;4.70;;;4.20;;
19671;SDS011;9983;51.114;13.788;2022-08-11T02:37:35;5.32;;;4.13;;
19671;SDS011;9983;51.114;13.788;2022-08-11T02:47:54;4.85;;;4.20;;
19671;SDS011;9983;51.114;13.788;2022-08-11T02:53:24;4.10;;;3.70;;
19671;SDS011;9983;51.114;13.788;2022-08-11T03:09:03;6.18;;;4.15;;
19671;SDS011;9983;51.114;13.788;2022-08-11T03:31:04;4.50;;;4.05;;
19671;SDS011;9983;51.114;13.788;2022-08-11T03:42:09;4.60;;;4.20;;
19671;SDS011;9983;51.114;13.788;2022-08-11T03:52:48;4.50;;;4.10;;
19671;SDS011;9983;51.114;13.788;2022-08-11T04:03:27;5.40;;;4.20;;
19671;SDS011;9983;51.114;13.788;2022-08-11T04:08:54;5.93;;;4.47;;
19671;SDS011;9983;51.114;13.788;2022-08-11T04:14:29;4.93;;;4.43;;
19671;SDS011;9983;51.114;13.788;2022-08-11T04:20:18;4.95;;;4.43;;
19671;SDS011;9983;51.114;13.788;2022-08-11T04:25:43;4.70;;;4.20;;
19671;SDS011;9983;51.114;13.788;2022-08-11T04:31:04;7.70;;;4.43;;
19671;SDS011;9983;51.114;13.788;2022-08-11T04:48:01;4.18;;;3.88;;
19671;SDS011;9983;51.114;13.788;2022-08-11T04:53:49;5.50;;;4.57;;
19671;SDS011;9983;51.114;13.788;2022-08-11T04:59:37;4.72;;;4.32;;
19671;SDS011;9983;51.114;13.788;2022-08-11T05:15:51;4.85;;;4.35;;
19671;SDS011;9983;51.114;13.788;2022-08-11T05:21:11;4.28;;;3.95;;
19671;SDS011;9983;51.114;13.788;2022-08-11T05:26:36;4.38;;;4.07;;
19671;SDS011;9983;51.114;13.788;2022-08-11T05:32:02;4.65;;;3.97;;
19671;SDS011;9983;51.114;13.788;2022-08-11T05:37:29;4.32;;;3.90;;
19671;SDS011;9983;51.114;13.788;2022-08-11T05:42:38;5.80;;;4.30;;
19671;SDS011;9983;51.114;13.788;2022-08-11T05:48:02;4.53;;;4.13;;
19671;SDS011;9983;51.114;13.788;2022-08-11T05:53:22;6.07;;;4.93;;
19671;SDS011;9983;51.114;13.788;2022-08-11T05:58:42;3.78;;;3.58;;
19671;SDS011;9983;51.114;13.788;2022-08-11T06:03:45;4.70;;;4.03;;
19671;SDS011;9983;51.114;13.788;2022-08-11T06:09:12;3.83;;;3.53;;
19671;SDS011;9983;51.114;13.788;2022-08-11T06:14:13;7.85;;;3.55;;
19671;SDS011;9983;51.114;13.788;2022-08-11T06:19:14;5.32;;;4.13;;
19671;SDS011;9983;51.114;13.788;2022-08-11T06:24:16;4.25;;;3.85;;
19671;SDS011;9983;51.114;13.788;2022-08-11T06:29:17;5.45;;;3.50;;
19671;SDS011;9983;51.114;13.788;2022-08-11T06:34:25;4.28;;;3.60;;
19671;SDS011;9983;51.114;13.788;2022-08-11T06:39:34;5.72;;;3.60;;
19671;SDS011;9983;51.114;13.788;2022-08-11T06:44:46;4.15;;;3.00;;
19671;SDS011;9983;51.114;13.788;2022-08-11T06:49:59;3.10;;;2.83;;
19671;SDS011;9983;51.114;13.788;2022-08-11T06:55:40;4.18;;;3.08;;
19671;SDS011;9983;51.114;13.788;2022-08-11T07:01:06;4.55;;;2.92;;
19671;SDS011;9983;51.114;13.788;2022-08-11T07:06:17;4.40;;;3.25;;
19671;SDS011;9983;51.114;13.788;2022-08-11T07:17:13;3.47;;;2.78;;
19671;SDS011;9983;51.114;13.788;2022-08-11T07:22:16;4.18;;;2.70;;
19671;SDS011;9983;51.114;13.788;2022-08-11T07:27:42;2.80;;;2.60;;
19671;SDS011;9983;51.114;13.788;2022-08-11T07:33:03;2.83;;;2.53;;
19671;SDS011;9983;51.114;13.788;2022-08-11T07:38:07;5.40;;;2.40;;
19671;SDS011;9983;51.114;13.788;2022-08-11T07:43:14;2.55;;;2.35;;
19671;SDS011;9983;51.114;13.788;2022-08-11T07:48:15;2.72;;;2.10;;
19671;SDS011;9983;51.114;13.788;2022-08-11T07:53:35;2.20;;;2.00;;
19671;SDS011;9983;51.114;13.788;2022-08-11T07:58:36;5.38;;;2.20;;
19671;SDS011;9983;51.114;13.788;2022-08-11T08:03:57;3.28;;;2.10;;
19671;SDS011;9983;51.114;13.788;2022-08-11T08:09:18;4.55;;;2.25;;
19671;SDS011;9983;51.114;13.788;2022-08-11T08:14:38;5.13;;;2.22;;
19671;SDS011;9983;51.114;13.788;2022-08-11T08:19:57;3.45;;;2.40;;
19671;SDS011;9983;51.114;13.788;2022-08-11T08:24:58;4.85;;;2.20;;
19671;SDS011;9983;51.114;13.788;2022-08-11T08:29:58;4.60;;;2.50;;
19671;SDS011;9983;51.114;13.788;2022-08-11T08:35:19;6.65;;;2.50;;
19671;SDS011;9983;51.114;13.788;2022-08-11T08:40:20;4.07;;;2.35;;
19671;SDS011;9983;51.114;13.788;2022-08-11T08:45:21;2.50;;;2.35;;
19671;SDS011;9983;51.114;13.788;2022-08-11T08:50:23;2.53;;;2.33;;
19671;SDS011;9983;51.114;13.788;2022-08-11T08:55:46;3.88;;;2.60;;
19671;SDS011;9983;51.114;13.788;2022-08-11T09:00:50;3.47;;;2.40;;
19671;SDS011;9983;51.114;13.788;2022-08-11T09:05:52;4.13;;;2.53;;
19671;SDS011;9983;51.114;13.788;2022-08-11T09:10:55;4.75;;;2.50;;
19671;SDS011;9983;51.114;13.788;2022-08-11T09:16:15;3.55;;;2.80;;
19671;SDS011;9983;51.114;13.788;2022-08-11T09:21:16;4.30;;;2.47;;
19671;SDS011;9983;51.114;13.788;2022-08-11T09:26:20;4.65;;;2.70;;
19671;SDS011;9983;51.114;13.788;2022-08-11T09:31:39;3.05;;;2.40;;
19671;SDS011;9983;51.114;13.788;2022-08-11T09:36:42;4.63;;;2.58;;
19671;SDS011;9983;51.114;13.788;2022-08-11T09:42:02;5.82;;;2.58;;
19671;SDS011;9983;51.114;13.788;2022-08-11T09:47:03;6.07;;;2.35;;
19671;SDS011;9983;51.114;13.788;2022-08-11T09:52:12;4.75;;;2.40;;
19671;SDS011;9983;51.114;13.788;2022-08-11T09:57:13;2.28;;;2.17;;
19671;SDS011;9983;51.114;13.788;2022-08-11T10:02:39;3.28;;;2.35;;
19671;SDS011;9983;51.114;13.788;2022-08-11T10:07:46;2.45;;;2.00;;
19671;SDS011;9983;51.114;13.788;2022-08-11T10:12:55;5.45;;;2.70;;
19671;SDS011;9983;51.114;13.788;2022-08-11T10:18:05;2.75;;;2.55;;
19671;SDS011;9983;51.114;13.788;2022-08-11T10:23:27;2.50;;;2.20;;
19671;SDS011;9983;51.114;13.788;2022-08-11T10:28:49;2.88;;;2.40;;
19671;SDS011;9983;51.114;13.788;2022-08-11T10:33:51;3.95;;;2.35;;
19671;SDS011;9983;51.114;13.788;2022-08-11T10:38:59;2.38;;;2.17;;
19671;SDS011;9983;51.114;13.788;2022-08-11T10:44:03;2.80;;;2.50;;
19671;SDS011;9983;51.114;13.788;2022-08-11T10:49:07;2.85;;;2.20;;
19671;SDS011;9983;51.114;13.788;2022-08-11T10:54:08;3.22;;;2.00;;
19671;SDS011;9983;51.114;13.788;2022-08-11T10:59:28;5.68;;;2.20;;
19671;SDS011;9983;51.114;13.788;2022-08-11T11:04:32;2.55;;;1.95;;
19671;SDS011;9983;51.114;13.788;2022-08-11T11:09:53;3.03;;;2.05;;
19671;SDS011;9983;51.114;13.788;2022-08-11T11:14:56;2.00;;;1.88;;
19671;SDS011;9983;51.114;13.788;2022-08-11T11:20:22;3.00;;;1.83;;
19671;SDS011;9983;51.114;13.788;2022-08-11T11:25:35;2.20;;;1.95;;
19671;SDS011;9983;51.114;13.788;2022-08-11T11:31:09;2.83;;;1.90;;
19671;SDS011;9983;51.114;13.788;2022-08-11T11:36:27;2.28;;;1.67;;
19671;SDS011;9983;51.114;13.788;2022-08-11T11:41:38;2.90;;;1.73;;
19671;SDS011;9983;51.114;13.788;2022-08-11T11:46:41;1.70;;;1.60;;
19671;SDS011;9983;51.114;13.788;2022-08-11T11:51:47;1.88;;;1.70;;
19671;SDS011;9983;51.114;13.788;2022-08-11T11:56:51;1.70;;;1.60;;
19671;SDS011;9983;51.114;13.788;2022-08-11T12:01:53;1.70;;;1.60;;
19671;SDS011;9983;51.114;13.788;2022-08-11T12:06:55;1.70;;;1.60;;
19671;SDS011;9983;51.114;13.788;2022-08-11T12:12:17;2.53;;;1.52;;
19671;SDS011;9983;51.114;13.788;2022-08-11T12:17:37;1.77;;;1.65;;
19671;SDS011;9983;51.114;13.788;2022-08-11T12:22:38;3.20;;;1.55;;
19671;SDS011;9983;51.114;13.788;2022-08-11T12:27:57;1.70;;;1.60;;
19671;SDS011;9983;51.114;13.788;2022-08-11T12:32:57;1.50;;;1.50;;
19671;SDS011;9983;51.114;13.788;2022-08-11T12:37:58;1.77;;;1.67;;
19671;SDS011;9983;51.114;13.788;2022-08-11T12:43:02;2.85;;;1.70;;
19671;SDS011;9983;51.114;13.788;2022-08-11T12:48:27;1.95;;;1.75;;
19671;SDS011;9983;51.114;13.788;2022-08-11T12:59:10;2.30;;;1.73;;
19671;SDS011;9983;51.114;13.788;2022-08-11T13:04:30;1.70;;;1.60;;
19671;SDS011;9983;51.114;13.788;2022-08-11T13:09:49;1.80;;;1.50;;
19671;SDS011;9983;51.114;13.788;2022-08-11T13:14:50;3.17;;;1.98;;
19671;SDS011;9983;51.114;13.788;2022-08-11T13:19:50;1.90;;;1.80;;
19671;SDS011;9983;51.114;13.788;2022-08-11T13:24:52;3.58;;;1.92;;
19671;SDS011;9983;51.114;13.788;2022-08-11T13:29:56;2.78;;;2.20;;
19671;SDS011;9983;51.114;13.788;2022-08-11T13:35:16;2.00;;;1.90;;
19671;SDS011;9983;51.114;13.788;2022-08-11T13:40:17;2.85;;;2.00;;
19671;SDS011;9983;51.114;13.788;2022-08-11T13:45:23;2.22;;;2.08;;
19671;SDS011;9983;51.114;13.788;2022-08-11T13:50:25;2.17;;;1.90;;
19671;SDS011;9983;51.114;13.788;2022-08-11T13:55:46;2.33;;;2.13;;
19671;SDS011;9983;51.114;13.788;2022-08-11T14:00:48;2.50;;;2.30;;
19671;SDS011;9983;51.114;13.788;2022-08-11T14:05:52;3.95;;;2.00;;
19671;SDS011;9983;51.114;13.788;2022-08-11T14:10:57;2.67;;;2.20;;
19671;SDS011;9983;51.114;13.788;2022-08-11T14:16:20;2.42;;;2.00;;
19671;SDS011;9983;51.114;13.788;2022-08-11T14:21:29;2.53;;;2.15;;
19671;SDS011;9983;51.114;13.788;2022-08-11T14:26:54;2.80;;;2.00;;
19671;SDS011;9983;51.114;13.788;2022-08-11T14:31:55;2.43;;;2.20;;
19671;SDS011;9983;51.114;13.788;2022-08-11T14:36:59;2.25;;;2.10;;
19671;SDS011;9983;51.114;13.788;2022-08-11T14:42:03;2.17;;;1.98;;
19671;SDS011;9983;51.114;13.788;2022-08-11T14:47:23;3.20;;;2.10;;
19671;SDS011;9983;51.114;13.788;2022-08-11T14:52:26;2.20;;;2.10;;
19671;SDS011;9983;51.114;13.788;2022-08-11T14:57:28;2.88;;;2.35;;
19671;SDS011;9983;51.114;13.788;2022-08-11T15:02:30;2.20;;;2.00;;
19671;SDS011;9983;51.114;13.788;2022-08-11T15:07:53;2.35;;;2.10;;
19671;SDS011;9983;51.114;13.788;2022-08-11T15:12:55;2.13;;;1.92;;
19671;SDS011;9983;51.114;13.788;2022-08-11T15:17:56;6.35;;;2.20;;
19671;SDS011;9983;51.114;13.788;2022-08-11T15:22:58;3.28;;;1.85;;
19671;SDS011;9983;51.114;13.788;2022-08-11T15:28:19;2.33;;;2.00;;
19671;SDS011;9983;51.114;13.788;2022-08-11T15:33:41;2.17;;;2.03;;
19671;SDS011;9983;51.114;13.788;2022-08-11T15:39:18;2.15;;;2.05;;
19671;SDS011;9983;51.114;13.788;2022-08-11T15:44:21;3.60;;;2.20;;
19671;SDS011;9983;51.114;13.788;2022-08-11T15:49:40;2.55;;;2.00;;
19671;SDS011;9983;51.114;13.788;2022-08-11T15:54:44;3.92;;;2.10;;
19671;SDS011;9983;51.114;13.788;2022-08-11T15:59:46;2.47;;;2.13;;
19671;SDS011;9983;51.114;13.788;2022-08-11T16:05:05;2.38;;;1.90;;
19671;SDS011;9983;51.114;13.788;2022-08-11T16:10:09;1.90;;;1.80;;
19671;SDS011;9983;51.114;13.788;2022-08-11T16:15:17;2.10;;;2.00;;
19671;SDS011;9983;51.114;13.788;2022-08-11T16:20:36;3.25;;;2.10;;
19671;SDS011;9983;51.114;13.788;2022-08-11T16:25:36;3.35;;;2.15;;
19671;SDS011;9983;51.114;13.788;2022-08-11T16:30:38;2.67;;;2.20;;
19671;SDS011;9983;51.114;13.788;2022-08-11T16:35:40;3.55;;;2.67;;
19671;SDS011;9983;51.114;13.788;2022-08-11T16:41:02;2.45;;;2.35;;
19671;SDS011;9983;51.114;13.788;2022-08-11T16:46:06;2.90;;;2.70;;
19671;SDS011;9983;51.114;13.788;2022-08-11T16:51:36;2.90;;;2.55;;
19671;SDS011;9983;51.114;13.788;2022-08-11T16:56:37;2.15;;;2.05;;
19671;SDS011;9983;51.114;13.788;2022-08-11T17:01:50;2.20;;;2.10;;
19671;SDS011;9983;51.114;13.788;2022-08-11T17:07:08;2.65;;;1.92;;
19671;SDS011;9983;51.114;13.788;2022-08-11T17:12:33;2.25;;;2.15;;
19671;SDS011;9983;51.114;13.788;2022-08-11T17:17:58;2.33;;;2.13;;
19671;SDS011;9983;51.114;13.788;2022-08-11T17:23:01;2.88;;;2.40;;
19671;SDS011;9983;51.114;13.788;2022-08-11T17:28:23;2.38;;;2.17;;
19671;SDS011;9983;51.114;13.788;2022-08-11T17:33:23;3.07;;;2.33;;
19671;SDS011;9983;51.114;13.788;2022-08-11T17:38:42;3.72;;;2.50;;
19671;SDS011;9983;51.114;13.788;2022-08-11T17:43:45;4.88;;;2.50;;
19671;SDS011;9983;51.114;13.788;2022-08-11T17:49:06;3.15;;;2.13;;
19671;SDS011;9983;51.114;13.788;2022-08-11T17:54:08;3.30;;;2.30;;
19671;SDS011;9983;51.114;13.788;2022-08-11T17:59:27;3.92;;;2.10;;
19671;SDS011;9983;51.114;13.788;2022-08-11T18:04:46;2.10;;;2.00;;
19671;SDS011;9983;51.114;13.788;2022-08-11T18:09:49;2.50;;;2.20;;
19671;SDS011;9983;51.114;13.788;2022-08-11T18:15:07;2.25;;;2.05;;
19671;SDS011;9983;51.114;13.788;2022-08-11T18:20:27;3.17;;;2.15;;
19671;SDS011;9983;51.114;13.788;2022-08-11T18:25:46;4.32;;;2.20;;
19671;SDS011;9983;51.114;13.788;2022-08-11T18:31:05;3.20;;;1.80;;
19671;SDS011;9983;51.114;13.788;2022-08-11T18:36:32;2.47;;;2.03;;
19671;SDS011;9983;51.114;13.788;2022-08-11T18:41:57;3.33;;;2.00;;
19671;SDS011;9983;51.114;13.788;2022-08-11T18:47:19;1.92;;;1.80;;
19671;SDS011;9983;51.114;13.788;2022-08-11T18:52:40;2.92;;;1.60;;
19671;SDS011;9983;51.114;13.788;2022-08-11T18:58:02;3.20;;;2.03;;
19671;SDS011;9983;51.114;13.788;2022-08-11T19:03:24;5.22;;;2.15;;
19671;SDS011;9983;51.114;13.788;2022-08-11T19:08:47;2.70;;;1.90;;
19671;SDS011;9983;51.114;13.788;2022-08-11T19:14:11;2.92;;;2.20;;
19671;SDS011;9983;51.114;13.788;2022-08-11T19:19:30;2.13;;;2.03;;
19671;SDS011;9983;51.114;13.788;2022-08-11T19:24:52;2.55;;;2.00;;
19671;SDS011;9983;51.114;13.788;2022-08-11T19:30:13;4.35;;;2.13;;
19671;SDS011;9983;51.114;13.788;2022-08-11T19:35:32;2.92;;;1.75;;
19671;SDS011;9983;51.114;13.788;2022-08-11T19:40:52;1.77;;;1.67;;
19671;SDS011;9983;51.114;13.788;2022-08-11T19:46:12;5.65;;;2.00;;
19671;SDS011;9983;51.114;13.788;2022-08-11T19:51:32;3.85;;;1.95;;
19671;SDS011;9983;51.114;13.788;2022-08-11T19:56:52;3.00;;;1.98;;
19671;SDS011;9983;51.114;13.788;2022-08-11T20:02:12;2.05;;;1.95;;
19671;SDS011;9983;51.114;13.788;2022-08-11T20:07:30;2.28;;;2.08;;
19671;SDS011;9983;51.114;13.788;2022-08-11T20:12:50;2.28;;;2.03;;
19671;SDS011;9983;51.114;13.788;2022-08-11T20:18:12;4.60;;;2.10;;
19671;SDS011;9983;51.114;13.788;2022-08-11T20:23:33;2.15;;;1.95;;
19671;SDS011;9983;51.114;13.788;2022-08-11T20:28:52;4.00;;;2.17;;
19671;SDS011;9983;51.114;13.788;2022-08-11T20:34:13;2.15;;;1.92;;
19671;SDS011;9983;51.114;13.788;2022-08-11T20:39:34;2.13;;;1.90;;
19671;SDS011;9983;51.114;13.788;2022-08-11T20:44:55;3.60;;;2.42;;
19671;SDS011;9983;51.114;13.788;2022-08-11T20:50:17;2.22;;;2.03;;
19671;SDS011;9983;51.114;13.788;2022-08-11T20:55:37;2.10;;;1.90;;
19671;SDS011;9983;51.114;13.788;2022-08-11T21:00:57;2.15;;;2.05;;
19671;SDS011;9983;51.114;13.788;2022-08-11T21:06:17;1.92;;;1.80;;
19671;SDS011;9983;51.114;13.788;2022-08-11T21:11:38;2.53;;;2.20;;
19671;SDS011;9983;51.114;13.788;2022-08-11T21:16:58;3.20;;;1.80;;
19671;SDS011;9983;51.114;13.788;2022-08-11T21:22:21;1.98;;;1.88;;
19671;SDS011;9983;51.114;13.788;2022-08-11T21:27:55;1.90;;;1.80;;
19671;SDS011;9983;51.114;13.788;2022-08-11T21:33:18;2.13;;;1.92;;
19671;SDS011;9983;51.114;13.788;2022-08-11T21:38:37;2.20;;;1.80;;
19671;SDS011;9983;51.114;13.788;2022-08-11T21:43:57;3.85;;;2.22;;
19671;SDS011;9983;51.114;13.788;2022-08-11T21:49:16;2.35;;;1.98;;
19671;SDS011;9983;51.114;13.788;2022-08-11T21:54:38;2.70;;;1.98;;
19671;SDS011;9983;51.114;13.788;2022-08-11T21:59:58;2.90;;;2.10;;
19671;SDS011;9983;51.114;13.788;2022-08-11T22:05:17;2.22;;;2.00;;
19671;SDS011;9983;51.114;13.788;2022-08-11T22:10:37;3.45;;;2.00;;
19671;SDS011;9983;51.114;13.788;2022-08-11T22:16:00;2.90;;;2.47;;
19671;SDS011;9983;51.114;13.788;2022-08-11T22:21:19;1.92;;;1.80;;
19671;SDS011;9983;51.114;13.788;2022-08-11T22:26:39;4.70;;;2.28;;
19671;SDS011;9983;51.114;13.788;2022-08-11T22:31:58;2.13;;;1.95;;
19671;SDS011;9983;51.114;13.788;2022-08-11T22:37:18;2.88;;;2.10;;
19671;SDS011;9983;51.114;13.788;2022-08-11T22:42:38;2.13;;;2.00;;
19671;SDS011;9983;51.114;13.788;2022-08-11T22:47:56;1.90;;;1.80;;
19671;SDS011;9983;51.114;13.788;2022-08-11T22:53:17;2.00;;;1.80;;
19671;SDS011;9983;51.114;13.788;2022-08-11T22:58:37;2.10;;;2.00;;
19671;SDS011;9983;51.114;13.788;2022-08-11T23:03:55;3.83;;;1.92;;
19671;SDS011;9983;51.114;13.788;2022-08-11T23:09:15;2.10;;;1.90;;
19671;SDS011;9983;51.114;13.788;2022-08-11T23:14:34;2.40;;;2.20;;
19671;SDS011;9983;51.114;13.788;2022-08-11T23:19:54;2.85;;;1.90;;
19671;SDS011;9983;51.114;13.788;2022-08-11T23:25:14;2.47;;;2.28;;
19671;SDS011;9983;51.114;13.788;2022-08-11T23:30:33;1.90;;;1.80;;
19671;SDS011;9983;51.114;13.788;2022-08-11T23:35:53;2.75;;;1.90;;
19671;SDS011;9983;51.114;13.788;2022-08-11T23:41:13;2.42;;;2.20;;
19671;SDS011;9983;51.114;13.788;2022-08-11T23:46:33;2.38;;;2.08;;
19671;SDS011;9983;51.114;13.788;2022-08-11T23:51:53;2.65;;;2.30;;
19671;SDS011;9983;51.114;13.788;2022-08-11T23:57:12;3.28;;;2.35;;
